sensor_id;sensor_type;location;lat;lon;timestamp;pressure;altitude;pressure_sealevel;temperature;humidity
66880;BME280;53789;51.392;10.234;2023-06-14T13:39:53;98411.84;;;22.14;37.57
66880;BME280;53789;51.392;10.234;2023-06-14T13:40:13;98409.47;;;22.16;37.63
66880;BME280;53789;51.392;10.234;2023-06-14T13:40:34;98410.72;;;22.19;37.38
66880;BME280;53789;51.392;10.234;2023-06-14T13:40:54;98406.69;;;22.20;37.30
66880;BME280;53789;51.392;10.234;2023-06-14T13:41:14;98405.53;;;22.21;36.64
66880;BME280;53789;51.392;10.234;2023-06-14T13:41:34;98407.56;;;22.24;36.98
66880;BME280;53789;51.392;10.234;2023-06-14T13:41:55;98404.75;;;22.24;36.11
66880;BME280;53789;51.392;10.234;2023-06-14T13:42:15;98401.16;;;22.23;36.58
66880;BME280;53789;51.392;10.234;2023-06-14T13:42:35;98402.41;;;22.26;36.60
66880;BME280;53789;51.392;10.234;2023-06-14T13:42:56;98391.59;;;22.28;35.58
66880;BME280;53789;51.392;10.234;2023-06-14T13:43:16;98407.22;;;22.29;35.62
66880;BME280;53789;51.392;10.234;2023-06-14T13:43:36;98406.47;;;22.32;36.47
66880;BME280;53789;51.392;10.234;2023-06-14T13:43:57;98406.50;;;22.36;35.70
66880;BME280;53789;51.392;10.234;2023-06-14T13:44:18;98403.31;;;22.37;36.51
66880;BME280;53789;51.392;10.234;2023-06-14T13:44:38;98392.09;;;22.37;36.34
66880;BME280;53789;51.392;10.234;2023-06-14T13:44:58;98398.19;;;22.43;36.11
66880;BME280;53789;51.392;10.234;2023-06-14T13:45:19;98401.75;;;22.40;36.29
66880;BME280;53789;51.392;10.234;2023-06-14T13:45:39;98407.81;;;22.45;36.21
66880;BME280;53789;51.392;10.234;2023-06-14T13:45:59;98403.06;;;22.49;36.41
66880;BME280;53789;51.392;10.234;2023-06-14T13:46:20;98401.94;;;22.54;36.17
66880;BME280;53789;51.392;10.234;2023-06-14T13:46:40;98397.97;;;22.59;36.13
66880;BME280;53789;51.392;10.234;2023-06-14T13:47:01;98404.44;;;22.63;36.02
66880;BME280;53789;51.392;10.234;2023-06-14T13:47:21;98405.25;;;22.67;36.33
66880;BME280;53789;51.392;10.234;2023-06-14T13:47:41;98410.09;;;22.70;35.84
66880;BME280;53789;51.392;10.234;2023-06-14T13:48:01;98409.72;;;22.72;35.63
66880;BME280;53789;51.392;10.234;2023-06-14T13:48:22;98407.34;;;22.74;35.94
66880;BME280;53789;51.392;10.234;2023-06-14T13:48:42;98410.16;;;22.77;36.26
66880;BME280;53789;51.392;10.234;2023-06-14T13:49:02;98412.59;;;22.79;35.50
66880;BME280;53789;51.392;10.234;2023-06-14T13:49:22;98408.19;;;22.78;35.56
66880;BME280;53789;51.392;10.234;2023-06-14T13:49:43;98404.56;;;22.77;35.28
66880;BME280;53789;51.392;10.234;2023-06-14T13:50:04;98406.97;;;22.79;35.77
66880;BME280;53789;51.392;10.234;2023-06-14T13:50:25;98401.81;;;22.81;35.36
66880;BME280;53789;51.392;10.234;2023-06-14T13:50:45;98401.81;;;22.81;35.70
66880;BME280;53789;51.392;10.234;2023-06-14T13:51:05;98401.81;;;22.81;35.33
66880;BME280;53789;51.392;10.234;2023-06-14T13:51:25;98403.00;;;22.80;35.82
66880;BME280;53789;51.392;10.234;2023-06-14T13:51:46;98402.59;;;22.78;35.38
66880;BME280;53789;51.392;10.234;2023-06-14T13:52:06;98401.38;;;22.79;35.43
66880;BME280;53789;51.392;10.234;2023-06-14T13:52:27;98403.75;;;22.77;35.56
66880;BME280;53789;51.392;10.234;2023-06-14T13:52:47;98400.97;;;22.77;35.70
66880;BME280;53789;51.392;10.234;2023-06-14T13:53:07;98400.97;;;22.77;35.52
66880;BME280;53789;51.392;10.234;2023-06-14T13:53:27;98403.75;;;22.77;35.93
66880;BME280;53789;51.392;10.234;2023-06-14T13:53:49;98403.34;;;22.75;36.00
66880;BME280;53789;51.392;10.234;2023-06-14T13:54:12;98404.88;;;22.68;35.80
66880;BME280;53789;51.392;10.234;2023-06-14T13:54:33;98400.03;;;22.65;35.60
66880;BME280;53789;51.392;10.234;2023-06-14T13:54:53;98413.63;;;22.63;35.92
66880;BME280;53789;51.392;10.234;2023-06-14T13:55:14;98403.56;;;22.59;36.17
66880;BME280;53789;51.392;10.234;2023-06-14T13:55:34;98403.56;;;22.59;36.28
66880;BME280;53789;51.392;10.234;2023-06-14T13:55:54;98405.94;;;22.57;36.22
66880;BME280;53789;51.392;10.234;2023-06-14T13:56:15;98411.94;;;22.55;36.00
66880;BME280;53789;51.392;10.234;2023-06-14T13:56:35;98408.72;;;22.53;36.02
66880;BME280;53789;51.392;10.234;2023-06-14T13:56:56;98407.09;;;22.52;36.08
66880;BME280;53789;51.392;10.234;2023-06-14T13:57:16;98409.09;;;22.52;35.53
66880;BME280;53789;51.392;10.234;2023-06-14T13:57:36;98403.88;;;22.50;36.29
66880;BME280;53789;51.392;10.234;2023-06-14T13:57:56;98402.59;;;22.44;35.71
66880;BME280;53789;51.392;10.234;2023-06-14T13:58:17;98401.00;;;22.43;36.43
66880;BME280;53789;51.392;10.234;2023-06-14T13:58:38;98405.78;;;22.42;36.24
66880;BME280;53789;51.392;10.234;2023-06-14T13:58:58;98398.94;;;22.40;36.10
66880;BME280;53789;51.392;10.234;2023-06-14T13:59:19;98400.97;;;22.39;36.00
66880;BME280;53789;51.392;10.234;2023-06-14T13:59:39;98404.16;;;22.38;36.53
66880;BME280;53789;51.392;10.234;2023-06-14T14:00:00;98407.31;;;22.36;36.50
66880;BME280;53789;51.392;10.234;2023-06-14T14:00:20;98407.31;;;22.36;36.34
66880;BME280;53789;51.392;10.234;2023-06-14T14:00:40;98407.31;;;22.36;36.48
66880;BME280;53789;51.392;10.234;2023-06-14T14:01:01;98402.91;;;22.35;36.35
66880;BME280;53789;51.392;10.234;2023-06-14T14:01:22;98403.69;;;22.36;36.28
66880;BME280;53789;51.392;10.234;2023-06-14T14:01:42;98402.53;;;22.37;36.41
66880;BME280;53789;51.392;10.234;2023-06-14T14:02:02;98409.38;;;22.39;36.16
66880;BME280;53789;51.392;10.234;2023-06-14T14:02:22;98406.56;;;22.39;36.14
66880;BME280;53789;51.392;10.234;2023-06-14T14:02:43;98411.78;;;22.41;36.54
66880;BME280;53789;51.392;10.234;2023-06-14T14:03:03;98410.19;;;22.43;36.66
66880;BME280;53789;51.392;10.234;2023-06-14T14:03:23;98401.78;;;22.43;35.99
66880;BME280;53789;51.392;10.234;2023-06-14T14:03:44;98408.63;;;22.46;36.55
66880;BME280;53789;51.392;10.234;2023-06-14T14:04:04;98409.88;;;22.48;36.05
66880;BME280;53789;51.392;10.234;2023-06-14T14:04:24;98401.47;;;22.48;36.51
66880;BME280;53789;51.392;10.234;2023-06-14T14:04:44;98409.47;;;22.50;36.21
66880;BME280;53789;51.392;10.234;2023-06-14T14:05:05;98409.09;;;22.52;36.42
66880;BME280;53789;51.392;10.234;2023-06-14T14:05:25;98408.31;;;22.55;36.61
66880;BME280;53789;51.392;10.234;2023-06-14T14:05:46;98413.97;;;22.58;36.46
66880;BME280;53789;51.392;10.234;2023-06-14T14:06:06;98419.13;;;22.53;35.80
66880;BME280;53789;51.392;10.234;2023-06-14T14:06:26;98412.75;;;22.56;35.88
66880;BME280;53789;51.392;10.234;2023-06-14T14:06:47;98411.53;;;22.57;36.05
66880;BME280;53789;51.392;10.234;2023-06-14T14:07:07;98416.75;;;22.58;36.66
66880;BME280;53789;51.392;10.234;2023-06-14T14:07:28;98409.59;;;22.61;35.90
66880;BME280;53789;51.392;10.234;2023-06-14T14:07:48;98409.66;;;22.64;36.53
66880;BME280;53789;51.392;10.234;2023-06-14T14:08:08;98415.28;;;22.68;36.69
66880;BME280;53789;51.392;10.234;2023-06-14T14:08:29;98415.69;;;22.70;36.19
66880;BME280;53789;51.392;10.234;2023-06-14T14:08:49;98410.53;;;22.72;36.71
66880;BME280;53789;51.392;10.234;2023-06-14T14:09:09;98410.94;;;22.74;36.16
66880;BME280;53789;51.392;10.234;2023-06-14T14:09:30;98407.38;;;22.77;36.63
66880;BME280;53789;51.392;10.234;2023-06-14T14:09:50;98413.03;;;22.81;36.31
66880;BME280;53789;51.392;10.234;2023-06-14T14:10:10;98405.81;;;22.83;36.34
66880;BME280;53789;51.392;10.234;2023-06-14T14:10:30;98409.09;;;22.85;36.19
66880;BME280;53789;51.392;10.234;2023-06-14T14:10:51;98415.94;;;22.88;36.37
66880;BME280;53789;51.392;10.234;2023-06-14T14:11:11;98415.94;;;22.88;35.95
66880;BME280;53789;51.392;10.234;2023-06-14T14:11:31;98413.53;;;22.90;35.77
66880;BME280;53789;51.392;10.234;2023-06-14T14:11:52;98415.56;;;22.93;36.31
66880;BME280;53789;51.392;10.234;2023-06-14T14:12:12;98411.19;;;22.96;35.98
66880;BME280;53789;51.392;10.234;2023-06-14T14:12:32;98409.97;;;22.93;36.29
66880;BME280;53789;51.392;10.234;2023-06-14T14:12:53;98405.97;;;22.94;36.26
66880;BME280;53789;51.392;10.234;2023-06-14T14:13:13;98407.16;;;22.93;35.78
66880;BME280;53789;51.392;10.234;2023-06-14T14:13:33;98405.16;;;22.94;36.14
66880;BME280;53789;51.392;10.234;2023-06-14T14:13:54;98405.97;;;22.94;36.43
66880;BME280;53789;51.392;10.234;2023-06-14T14:14:14;98409.16;;;22.93;35.84
66880;BME280;53789;51.392;10.234;2023-06-14T14:14:35;98416.75;;;22.92;36.36
66880;BME280;53789;51.392;10.234;2023-06-14T14:14:55;98411.16;;;22.92;36.71
66880;BME280;53789;51.392;10.234;2023-06-14T14:15:15;98404.75;;;22.92;36.39
66880;BME280;53789;51.392;10.234;2023-06-14T14:15:35;98401.91;;;22.88;35.77
66880;BME280;53789;51.392;10.234;2023-06-14T14:15:56;98409.44;;;22.84;36.39
66880;BME280;53789;51.392;10.234;2023-06-14T14:16:16;98404.22;;;22.82;36.24
66880;BME280;53789;51.392;10.234;2023-06-14T14:16:37;98405.03;;;22.83;36.55
66880;BME280;53789;51.392;10.234;2023-06-14T14:16:57;98408.19;;;22.78;36.42
66880;BME280;53789;51.392;10.234;2023-06-14T14:17:17;98410.16;;;22.77;36.49
66880;BME280;53789;51.392;10.234;2023-06-14T14:17:38;98410.56;;;22.76;36.38
66880;BME280;53789;51.392;10.234;2023-06-14T14:17:58;98410.53;;;22.72;36.45
66880;BME280;53789;51.392;10.234;2023-06-14T14:18:19;98406.09;;;22.71;36.68
66880;BME280;53789;51.392;10.234;2023-06-14T14:18:39;98406.88;;;22.68;36.52
66880;BME280;53789;51.392;10.234;2023-06-14T14:18:59;98406.03;;;22.64;36.30
66880;BME280;53789;51.392;10.234;2023-06-14T14:19:22;98404.81;;;22.61;36.91
66880;BME280;53789;51.392;10.234;2023-06-14T14:19:43;98409.97;;;22.59;36.76
66880;BME280;53789;51.392;10.234;2023-06-14T14:20:03;98414.78;;;22.59;37.19
66880;BME280;53789;51.392;10.234;2023-06-14T14:20:44;98415.09;;;22.50;36.78
66880;BME280;53789;51.392;10.234;2023-06-14T14:21:04;98402.25;;;22.49;36.69
66880;BME280;53789;51.392;10.234;2023-06-14T14:21:25;98411.03;;;22.47;36.90
66880;BME280;53789;51.392;10.234;2023-06-14T14:21:45;98403.41;;;22.44;36.93
66880;BME280;53789;51.392;10.234;2023-06-14T14:22:05;98402.16;;;22.42;36.98
66880;BME280;53789;51.392;10.234;2023-06-14T14:22:26;98408.16;;;22.40;36.78
66880;BME280;53789;51.392;10.234;2023-06-14T14:22:46;98413.34;;;22.38;36.57
66880;BME280;53789;51.392;10.234;2023-06-14T14:23:06;98402.06;;;22.35;36.57
66880;BME280;53789;51.392;10.234;2023-06-14T14:23:27;98407.66;;;22.31;36.86
66880;BME280;53789;51.392;10.234;2023-06-14T14:23:47;98404.00;;;22.27;37.19
66880;BME280;53789;51.392;10.234;2023-06-14T14:24:07;98408.38;;;22.24;37.41
66880;BME280;53789;51.392;10.234;2023-06-14T14:24:27;98403.91;;;22.20;37.09
66880;BME280;53789;51.392;10.234;2023-06-14T14:24:48;98406.25;;;22.14;36.76
66880;BME280;53789;51.392;10.234;2023-06-14T14:25:09;98411.41;;;22.12;37.13
66880;BME280;53789;51.392;10.234;2023-06-14T14:25:29;98412.25;;;22.16;37.23
66880;BME280;53789;51.392;10.234;2023-06-14T14:25:50;98411.88;;;22.18;37.24
66880;BME280;53789;51.392;10.234;2023-06-14T14:26:10;98409.88;;;22.18;37.60
66880;BME280;53789;51.392;10.234;2023-06-14T14:26:30;98414.31;;;22.19;37.45
66880;BME280;53789;51.392;10.234;2023-06-14T14:26:51;98403.50;;;22.21;36.97
66880;BME280;53789;51.392;10.234;2023-06-14T14:27:11;98409.97;;;22.25;37.17
66880;BME280;53789;51.392;10.234;2023-06-14T14:27:32;98413.22;;;22.27;36.99
66880;BME280;53789;51.392;10.234;2023-06-14T14:27:52;98405.66;;;22.31;37.52
66880;BME280;53789;51.392;10.234;2023-06-14T14:28:12;98407.69;;;22.35;37.16
66880;BME280;53789;51.392;10.234;2023-06-14T14:28:33;98411.72;;;22.37;37.00
66880;BME280;53789;51.392;10.234;2023-06-14T14:28:53;98407.78;;;22.42;37.24
66880;BME280;53789;51.392;10.234;2023-06-14T14:29:13;98412.22;;;22.46;36.81
66880;BME280;53789;51.392;10.234;2023-06-14T14:29:34;98417.50;;;22.52;37.24
66880;BME280;53789;51.392;10.234;2023-06-14T14:29:54;98409.91;;;22.52;37.08
66880;BME280;53789;51.392;10.234;2023-06-14T14:30:14;98411.16;;;22.58;37.14
66880;BME280;53789;51.392;10.234;2023-06-14T14:30:35;98409.66;;;22.64;36.70
66880;BME280;53789;51.392;10.234;2023-06-14T14:30:55;98411.72;;;22.71;36.65
66880;BME280;53789;51.392;10.234;2023-06-14T14:31:15;98411.00;;;22.78;37.46
66880;BME280;53789;51.392;10.234;2023-06-14T14:31:35;98405.81;;;22.83;36.82
66880;BME280;53789;51.392;10.234;2023-06-14T14:31:56;98408.31;;;22.89;37.08
66880;BME280;53789;51.392;10.234;2023-06-14T14:32:16;98410.75;;;22.94;36.35
66880;BME280;53789;51.392;10.234;2023-06-14T14:32:36;98408.41;;;22.99;36.68
66880;BME280;53789;51.392;10.234;2023-06-14T14:32:57;98408.50;;;23.07;37.01
66880;BME280;53789;51.392;10.234;2023-06-14T14:33:17;98401.31;;;23.13;36.82
66880;BME280;53789;51.392;10.234;2023-06-14T14:33:37;98403.41;;;23.19;36.25
66880;BME280;53789;51.392;10.234;2023-06-14T14:33:58;98398.25;;;23.25;37.10
66880;BME280;53789;51.392;10.234;2023-06-14T14:34:18;98411.50;;;23.32;36.70
66880;BME280;53789;51.392;10.234;2023-06-14T14:34:38;98405.13;;;23.35;36.37
66880;BME280;53789;51.392;10.234;2023-06-14T14:34:58;98406.75;;;23.40;35.98
66880;BME280;53789;51.392;10.234;2023-06-14T14:35:19;98401.97;;;23.40;36.21
66880;BME280;53789;51.392;10.234;2023-06-14T14:35:39;98405.63;;;23.44;35.73
66880;BME280;53789;51.392;10.234;2023-06-14T14:35:59;98410.84;;;23.49;36.22
66880;BME280;53789;51.392;10.234;2023-06-14T14:36:20;98407.28;;;23.52;35.74
66880;BME280;53789;51.392;10.234;2023-06-14T14:36:40;98407.31;;;23.56;36.16
66880;BME280;53789;51.392;10.234;2023-06-14T14:37:00;98402.94;;;23.59;35.43
66880;BME280;53789;51.392;10.234;2023-06-14T14:37:20;98397.31;;;23.59;35.87
66880;BME280;53789;51.392;10.234;2023-06-14T14:37:41;98407.34;;;23.60;35.42
66880;BME280;53789;51.392;10.234;2023-06-14T14:38:01;98402.16;;;23.62;35.83
66880;BME280;53789;51.392;10.234;2023-06-14T14:38:21;98403.38;;;23.61;35.01
66880;BME280;53789;51.392;10.234;2023-06-14T14:38:41;98403.75;;;23.63;35.08
66880;BME280;53789;51.392;10.234;2023-06-14T14:39:02;98400.97;;;23.63;35.99
66880;BME280;53789;51.392;10.234;2023-06-14T14:39:22;98404.16;;;23.65;35.59
66880;BME280;53789;51.392;10.234;2023-06-14T14:39:44;98402.09;;;23.58;35.48
66880;BME280;53789;51.392;10.234;2023-06-14T14:40:06;98401.34;;;23.61;35.78
66880;BME280;53789;51.392;10.234;2023-06-14T14:40:26;98411.38;;;23.62;35.73
66880;BME280;53789;51.392;10.234;2023-06-14T14:40:47;98409.78;;;23.65;35.54
66880;BME280;53789;51.392;10.234;2023-06-14T14:41:07;98403.38;;;23.64;35.08
66880;BME280;53789;51.392;10.234;2023-06-14T14:41:27;98405.00;;;23.65;35.68
66880;BME280;53789;51.392;10.234;2023-06-14T14:41:48;98405.78;;;23.62;35.06
66880;BME280;53789;51.392;10.234;2023-06-14T14:42:08;98410.56;;;23.62;35.52
66880;BME280;53789;51.392;10.234;2023-06-14T14:42:28;98403.75;;;23.59;35.54
66880;BME280;53789;51.392;10.234;2023-06-14T14:42:49;98399.28;;;23.58;34.94
66880;BME280;53789;51.392;10.234;2023-06-14T14:43:09;98407.28;;;23.52;34.88
66880;BME280;53789;51.392;10.234;2023-06-14T14:43:29;98407.66;;;23.51;35.28
66880;BME280;53789;51.392;10.234;2023-06-14T14:43:50;98402.03;;;23.51;35.41
66880;BME280;53789;51.392;10.234;2023-06-14T14:44:10;98398.84;;;23.49;35.20
66880;BME280;53789;51.392;10.234;2023-06-14T14:44:30;98403.63;;;23.48;35.70
66880;BME280;53789;51.392;10.234;2023-06-14T14:44:50;98406.41;;;23.45;35.46
66880;BME280;53789;51.392;10.234;2023-06-14T14:45:11;98398.34;;;23.40;35.66
66880;BME280;53789;51.392;10.234;2023-06-14T14:45:31;98401.94;;;23.36;35.29
66880;BME280;53789;51.392;10.234;2023-06-14T14:45:51;98394.72;;;23.35;35.41
66880;BME280;53789;51.392;10.234;2023-06-14T14:46:12;98404.72;;;23.33;35.90
66880;BME280;53789;51.392;10.234;2023-06-14T14:46:32;98404.66;;;23.29;35.58
66880;BME280;53789;51.392;10.234;2023-06-14T14:46:52;98404.66;;;23.26;35.53
66880;BME280;53789;51.392;10.234;2023-06-14T14:47:12;98403.00;;;23.21;35.51
66880;BME280;53789;51.392;10.234;2023-06-14T14:47:33;98411.38;;;23.17;36.34
66880;BME280;53789;51.392;10.234;2023-06-14T14:47:53;98412.97;;;23.15;36.21
66880;BME280;53789;51.392;10.234;2023-06-14T14:48:13;98408.50;;;23.07;35.72
66880;BME280;53789;51.392;10.234;2023-06-14T14:48:34;98404.44;;;23.04;36.39
66880;BME280;53789;51.392;10.234;2023-06-14T14:48:54;98410.03;;;23.00;36.51
66880;BME280;53789;51.392;10.234;2023-06-14T14:49:14;98409.56;;;22.95;35.93
66880;BME280;53789;51.392;10.234;2023-06-14T14:49:34;98411.53;;;22.91;36.55
66880;BME280;53789;51.392;10.234;2023-06-14T14:49:55;98410.72;;;22.87;36.56
66880;BME280;53789;51.392;10.234;2023-06-14T14:50:15;98412.25;;;22.84;37.07
66880;BME280;53789;51.392;10.234;2023-06-14T14:50:35;98407.81;;;22.79;36.27
66880;BME280;53789;51.392;10.234;2023-06-14T14:50:56;98409.38;;;22.77;37.07
66880;BME280;53789;51.392;10.234;2023-06-14T14:51:16;98410.13;;;22.74;37.00
66880;BME280;53789;51.392;10.234;2023-06-14T14:51:36;98406.50;;;22.70;36.77
66880;BME280;53789;51.392;10.234;2023-06-14T14:51:57;98412.06;;;22.66;36.40
66880;BME280;53789;51.392;10.234;2023-06-14T14:52:17;98408.81;;;22.64;36.24
66880;BME280;53789;51.392;10.234;2023-06-14T14:52:37;98405.56;;;22.58;36.86
66880;BME280;53789;51.392;10.234;2023-06-14T14:52:58;98416.34;;;22.56;37.26
66880;BME280;53789;51.392;10.234;2023-06-14T14:53:18;98403.50;;;22.52;37.39
66880;BME280;53789;51.392;10.234;2023-06-14T14:53:38;98409.88;;;22.48;36.64
66880;BME280;53789;51.392;10.234;2023-06-14T14:53:59;98403.03;;;22.46;37.28
66880;BME280;53789;51.392;10.234;2023-06-14T14:54:19;98414.63;;;22.44;37.25
66880;BME280;53789;51.392;10.234;2023-06-14T14:54:39;98404.59;;;22.43;37.47
66880;BME280;53789;51.392;10.234;2023-06-14T14:54:59;98408.59;;;22.42;37.44
66880;BME280;53789;51.392;10.234;2023-06-14T14:55:20;98402.16;;;22.42;37.91
66880;BME280;53789;51.392;10.234;2023-06-14T14:55:40;98405.72;;;22.39;37.58
66880;BME280;53789;51.392;10.234;2023-06-14T14:56:00;98408.53;;;22.39;37.72
66880;BME280;53789;51.392;10.234;2023-06-14T14:56:21;98404.53;;;22.36;37.32
66880;BME280;53789;51.392;10.234;2023-06-14T14:56:42;98412.09;;;22.36;37.49
66880;BME280;53789;51.392;10.234;2023-06-14T14:57:03;98409.28;;;22.32;37.80
66880;BME280;53789;51.392;10.234;2023-06-14T14:57:23;98409.28;;;22.32;37.47
66880;BME280;53789;51.392;10.234;2023-06-14T14:57:45;98411.25;;;22.31;38.37
66880;BME280;53789;51.392;10.234;2023-06-14T14:58:06;98404.81;;;22.27;37.84
66880;BME280;53789;51.392;10.234;2023-06-14T14:58:26;98406.78;;;22.27;37.58
66880;BME280;53789;51.392;10.234;2023-06-14T14:58:46;98407.19;;;22.25;37.67
66880;BME280;53789;51.392;10.234;2023-06-14T14:59:06;98403.13;;;22.23;37.83
66880;BME280;53789;51.392;10.234;2023-06-14T14:59:27;98403.97;;;22.23;38.09
66880;BME280;53789;51.392;10.234;2023-06-14T14:59:47;98407.94;;;22.22;37.49
66880;BME280;53789;51.392;10.234;2023-06-14T15:00:08;98417.53;;;22.21;37.54
66880;BME280;53789;51.392;10.234;2023-06-14T15:00:28;98412.31;;;22.20;37.98
66880;BME280;53789;51.392;10.234;2023-06-14T15:00:49;98418.28;;;22.18;37.61
66880;BME280;53789;51.392;10.234;2023-06-14T15:01:09;98403.81;;;22.12;37.59
66880;BME280;53789;51.392;10.234;2023-06-14T15:01:29;98413.03;;;22.13;37.80
66880;BME280;53789;51.392;10.234;2023-06-14T15:01:50;98415.44;;;22.14;37.73
66880;BME280;53789;51.392;10.234;2023-06-14T15:02:10;98413.44;;;22.15;37.78
66880;BME280;53789;51.392;10.234;2023-06-14T15:02:31;98420.66;;;22.16;37.83
66880;BME280;53789;51.392;10.234;2023-06-14T15:02:51;98407.06;;;22.18;37.71
66880;BME280;53789;51.392;10.234;2023-06-14T15:03:11;98419.91;;;22.19;38.06
66880;BME280;53789;51.392;10.234;2023-06-14T15:03:32;98415.94;;;22.20;38.28
66880;BME280;53789;51.392;10.234;2023-06-14T15:03:52;98412.75;;;22.22;38.28
66880;BME280;53789;51.392;10.234;2023-06-14T15:04:13;98410.34;;;22.24;38.09
66880;BME280;53789;51.392;10.234;2023-06-14T15:04:33;98411.97;;;22.25;37.71
66880;BME280;53789;51.392;10.234;2023-06-14T15:04:53;98413.22;;;22.27;37.64
66880;BME280;53789;51.392;10.234;2023-06-14T15:05:14;98412.84;;;22.29;38.12
66880;BME280;53789;51.392;10.234;2023-06-14T15:05:34;98414.06;;;22.31;38.24
66880;BME280;53789;51.392;10.234;2023-06-14T15:05:54;98413.28;;;22.35;38.18
66880;BME280;53789;51.392;10.234;2023-06-14T15:06:14;98420.13;;;22.37;38.20
66880;BME280;53789;51.392;10.234;2023-06-14T15:06:35;98415.75;;;22.40;37.59
66880;BME280;53789;51.392;10.234;2023-06-14T15:06:57;98414.97;;;22.39;37.86
66880;BME280;53789;51.392;10.234;2023-06-14T15:07:17;98417.78;;;22.39;38.07
66880;BME280;53789;51.392;10.234;2023-06-14T15:07:37;98413.75;;;22.40;37.85
66880;BME280;53789;51.392;10.234;2023-06-14T15:07:58;98420.19;;;22.41;37.98
66880;BME280;53789;51.392;10.234;2023-06-14T15:08:19;98415.00;;;22.43;37.51
66880;BME280;53789;51.392;10.234;2023-06-14T15:08:40;98415.75;;;22.40;37.63
66880;BME280;53789;51.392;10.234;2023-06-14T15:09:00;98418.97;;;22.42;37.50
66880;BME280;53789;51.392;10.234;2023-06-14T15:09:20;98416.19;;;22.42;37.79
66880;BME280;53789;51.392;10.234;2023-06-14T15:09:40;98419.81;;;22.42;37.80
66880;BME280;53789;51.392;10.234;2023-06-14T15:10:01;98419.81;;;22.42;37.76
66880;BME280;53789;51.392;10.234;2023-06-14T15:10:21;98417.78;;;22.43;38.14
66880;BME280;53789;51.392;10.234;2023-06-14T15:10:42;98411.81;;;22.44;37.84
66880;BME280;53789;51.392;10.234;2023-06-14T15:11:02;98416.63;;;22.44;37.91
66880;BME280;53789;51.392;10.234;2023-06-14T15:11:22;98418.22;;;22.45;37.90
66880;BME280;53789;51.392;10.234;2023-06-14T15:11:42;98417.03;;;22.46;37.89
66880;BME280;53789;51.392;10.234;2023-06-14T15:12:03;98417.03;;;22.46;38.00
66880;BME280;53789;51.392;10.234;2023-06-14T15:12:23;98413.84;;;22.47;37.78
66880;BME280;53789;51.392;10.234;2023-06-14T15:12:44;98414.28;;;22.49;37.66
66880;BME280;53789;51.392;10.234;2023-06-14T15:13:04;98415.88;;;22.50;38.33
66880;BME280;53789;51.392;10.234;2023-06-14T15:13:24;98419.13;;;22.53;37.64
66880;BME280;53789;51.392;10.234;2023-06-14T15:13:44;98419.13;;;22.53;37.60
66880;BME280;53789;51.392;10.234;2023-06-14T15:14:05;98415.94;;;22.54;37.92
66880;BME280;53789;51.392;10.234;2023-06-14T15:14:25;98420.34;;;22.55;38.47
66880;BME280;53789;51.392;10.234;2023-06-14T15:14:45;98419.91;;;22.53;37.88
66880;BME280;53789;51.392;10.234;2023-06-14T15:15:06;98419.50;;;22.51;38.09
66880;BME280;53789;51.392;10.234;2023-06-14T15:15:26;98418.31;;;22.52;37.67
66880;BME280;53789;51.392;10.234;2023-06-14T15:15:47;98416.31;;;22.53;38.03
66880;BME280;53789;51.392;10.234;2023-06-14T15:16:07;98413.53;;;22.53;37.73
66880;BME280;53789;51.392;10.234;2023-06-14T15:16:47;98415.94;;;22.54;37.70
66880;BME280;53789;51.392;10.234;2023-06-14T15:17:08;98411.50;;;22.53;37.87
66880;BME280;53789;51.392;10.234;2023-06-14T15:17:28;98410.28;;;22.50;37.40
66880;BME280;53789;51.392;10.234;2023-06-14T15:17:48;98416.72;;;22.51;38.30
66880;BME280;53789;51.392;10.234;2023-06-14T15:18:08;98417.88;;;22.50;37.76
66880;BME280;53789;51.392;10.234;2023-06-14T15:18:29;98411.91;;;22.52;37.56
66880;BME280;53789;51.392;10.234;2023-06-14T15:18:49;98413.06;;;22.50;37.75
66880;BME280;53789;51.392;10.234;2023-06-14T15:19:09;98414.69;;;22.48;38.18
66880;BME280;53789;51.392;10.234;2023-06-14T15:19:30;98411.88;;;22.48;38.07
66880;BME280;53789;51.392;10.234;2023-06-14T15:19:50;98419.06;;;22.49;38.06
66880;BME280;53789;51.392;10.234;2023-06-14T15:20:10;98407.44;;;22.47;37.69
66880;BME280;53789;51.392;10.234;2023-06-14T15:20:31;98411.88;;;22.48;37.36
66880;BME280;53789;51.392;10.234;2023-06-14T15:20:51;98408.69;;;22.49;37.79
66880;BME280;53789;51.392;10.234;2023-06-14T15:21:12;98412.28;;;22.50;37.68
66880;BME280;53789;51.392;10.234;2023-06-14T15:21:33;98406.28;;;22.52;38.07
66880;BME280;53789;51.392;10.234;2023-06-14T15:21:53;98408.72;;;22.53;37.63
66880;BME280;53789;51.392;10.234;2023-06-14T15:22:14;98418.75;;;22.54;38.13
66880;BME280;53789;51.392;10.234;2023-06-14T15:22:34;98412.75;;;22.56;38.02
66880;BME280;53789;51.392;10.234;2023-06-14T15:22:55;98414.72;;;22.55;37.68
66880;BME280;53789;51.392;10.234;2023-06-14T15:23:15;98420.78;;;22.57;37.91
66880;BME280;53789;51.392;10.234;2023-06-14T15:23:35;98413.97;;;22.58;38.24
66880;BME280;53789;51.392;10.234;2023-06-14T15:23:56;98419.22;;;22.60;38.29
66880;BME280;53789;51.392;10.234;2023-06-14T15:24:16;98420.41;;;22.59;38.06
66880;BME280;53789;51.392;10.234;2023-06-14T15:24:36;98416.34;;;22.56;37.26
66880;BME280;53789;51.392;10.234;2023-06-14T15:24:57;98419.56;;;22.58;38.05
66880;BME280;53789;51.392;10.234;2023-06-14T15:25:17;98426.78;;;22.59;37.21
66880;BME280;53789;51.392;10.234;2023-06-14T15:25:37;98422.38;;;22.58;37.15
66880;BME280;53789;51.392;10.234;2023-06-14T15:25:58;98425.16;;;22.58;37.14
66880;BME280;53789;51.392;10.234;2023-06-14T15:26:18;98420.00;;;22.60;37.39
66880;BME280;53789;51.392;10.234;2023-06-14T15:26:39;98422.38;;;22.58;36.49
66880;BME280;53789;51.392;10.234;2023-06-14T15:26:59;98415.56;;;22.56;36.87